Historique des mesures à Cassis (13260), France
Quotidien Résumé Mars 12, 2021 Unités:  Métrique    US   Métrique/US
Quotidien Hebdomadaire Mensuel Annuel
  Maximum: Minimum: Moyenne:
Température: 19.8 °C 14.9 °C 16.6 °C
Point de rosée: 14.4 °C 11.2 °C 12.4 °C
Humidité: 85% 68% 76%
Vitesse du vent: 18.4km/h 0km/h 4.9km/h
Rafales: 28.1km/h - -
Vent- - SSW
Pression: 1014.4 hPa 1011.5 hPa -
Précipitations: 1.5 mm    
Historical Graphs
 
 
Mesures pour : Mars 12, 2021
Heure Temperature Point de rosée Pression Vent Vitesse du vent Rafales Humidité Pluie (par heure)
00:10 16.1 °C 12.5 °C 1014.1 hPa Calm   3.2 km/h 79% 0.0 mm
01:11 15.5 °C 12.3 °C 1013.5 hPa WNW 13 km/h 19.4 km/h 81% 0.0 mm
02:10 15.6 °C 12.4 °C 1013.3 hPa WNW 2.2 km/h 4.7 km/h 81% 0.0 mm
03:11 14.9 °C 12.4 °C 1012.8 hPa WNW 7.6 km/h 12.6 km/h 85% 1.5 mm
04:10 14.9 °C 12.4 °C 1012.0 hPa Calm   13.7 km/h 85% 0.0 mm
05:11 14.9 °C 12 °C 1011.8 hPa NW 16.9 km/h 20.5 km/h 83% 0.0 mm
06:10 15.3 °C 11.9 °C 1011.5 hPa NW 18.4 km/h 28.1 km/h 80% 0.0 mm
07:11 15.2 °C 11.6 °C 1011.8 hPa WNW 7.6 km/h 11.2 km/h 79% 0.0 mm
08:10 15.5 °C 11.9 °C 1011.9 hPa Calm   6.1 km/h 79% 0.0 mm
09:11 15.9 °C 12.7 °C 1012.4 hPa Calm   2.5 km/h 81% 0.0 mm
10:10 16.9 °C 12.8 °C 1012.8 hPa ENE 4.3 km/h 14.4 km/h 77% 0.0 mm
11:11 18.1 °C 13.2 °C 1013.0 hPa ENE 3.6 km/h 10.8 km/h 73% 0.0 mm
12:10 18.6 °C 13.9 °C 1012.8 hPa ENE 5 km/h 14.4 km/h 74% 0.0 mm
13:11 18.5 °C 13.8 °C 1012.5 hPa ESE 4 km/h 7.6 km/h 74% 0.0 mm
14:10 19.8 °C 14.4 °C 1012.2 hPa SE 8.3 km/h 16.9 km/h 71% 0.0 mm
15:11 19 °C 12.9 °C 1012.2 hPa North 4 km/h 11.9 km/h 68% 0.0 mm
16:10 18.7 °C 13.1 °C 1012.2 hPa Calm     70% 0.0 mm
17:11 17.8 °C 12.3 °C 1012.7 hPa Calm   13.7 km/h 70% 0.0 mm
18:10 16.6 °C 11.7 °C 1012.8 hPa WNW 8.6 km/h 10.1 km/h 73% 0.0 mm
19:11 16.8 °C 11.3 °C 1013.4 hPa NNE 5 km/h 18.7 km/h 70% 0.0 mm
20:10 16.6 °C 11.5 °C 1013.9 hPa NW 6.1 km/h 7.6 km/h 72% 0.0 mm
21:11 16.4 °C 11.4 °C 1014.2 hPa NW 2.2 km/h 9.4 km/h 72% 0.0 mm
22:10 16.2 °C 11.2 °C 1014.4 hPa Calm   5.8 km/h 72% 0.0 mm
23:11 15.7 °C 11.3 °C 1014.3 hPa Calm   4.7 km/h 75% 0.0 mm
Observations météo à CASSIS
WU-History script by Weather Underground - 2 mb